• Join FlightAware (Why Join?)
  • Login
  • US Flag 
04:51AM EST


 

Airport Tracker/Info


-or-


 

Live Flight TrackerFlight Track Log ✈ ASA128 ✈ 25-Aug-2013 ✈ PAFA / FAI - KSEA

Flight Track Log - Related Links

Times and Time Zones

All times are in EDT time to prevent confusion due to time zone crossing. See the ASA128 flight status page for this flight to view local times or setup timezone preferences in your user account.

Time Position Orientation Groundspeed Altitude Reporting Facility
EDT Latitude Longitude Course Direction KTS MPH feet Rate Location/Type
05:34AM 64.7167 -147.7000 124° Southeast 270 311 4,700  Level Anchorage Center
05:35AM 64.6667 -147.5333 125° Southeast 280 322 7,500 2,640 Climbing Anchorage Center
05:36AM 64.6333 -147.4000 120° Southeast 280 322 10,000 2,280 Climbing Anchorage Center
05:37AM 64.5833 -147.2167 122° Southeast 320 368 12,100 2,100 Climbing Anchorage Center
05:38AM 64.3873 -146.5195 123° Southeast  Level FlightAware Approximate
05:38AM 64.5333 -147.0333 122° Southeast 350 403 14,300  Level Anchorage Center
05:39AM 64.3276 -146.3109 123° Southeast  Level FlightAware Approximate
05:39AM 64.4667 -146.8667 133° Southeast 370 426 16,700  Level Anchorage Center
05:40AM 64.2676 -146.1032 124° Southeast  Level FlightAware Approximate
05:40AM 64.3833 -146.6833 136° Southeast 390 449 19,300  Level Anchorage Center
05:41AM 64.3167 -146.5000 130° Southeast 400 460 21,400 2,040 Climbing Anchorage Center
05:42AM 64.2333 -146.3000 134° Southeast 420 483 23,400 1,860 Climbing Anchorage Center
05:43AM 64.1500 -146.1000 134° Southeast 430 495 25,200 1,740 Climbing Anchorage Center
05:44AM 64.0667 -145.9000 134° Southeast 440 506 27,000 1,560 Climbing Anchorage Center
05:45AM 63.9833 -145.7000 133° Southeast 450 518 28,400 1,260 Climbing Anchorage Center
05:46AM 63.9000 -145.5000 133° Southeast 460 529 29,600 1,440 Climbing Anchorage Center
05:47AM 63.8000 -145.2833 136° Southeast 460 529 31,300 1,380 Climbing Anchorage Center
05:48AM 63.7167 -145.0833 133° Southeast 460 529 32,400 1,080 Climbing Anchorage Center
05:49AM 63.6167 -144.8833 138° Southeast 470 541 33,500 1,020 Climbing Anchorage Center
05:50AM 63.5333 -144.6833 133° Southeast 480 552 34,500 1,080 Climbing Anchorage Center
05:51AM 63.4333 -144.4833 138° Southeast 470 541 35,700 900 Climbing Anchorage Center
05:52AM 63.3333 -144.2667 136° Southeast 470 541 36,300 600 Climbing Anchorage Center
05:53AM 63.2500 -144.0667 133° Southeast 480 552 37,000 300 Climbing Anchorage Center
05:54AM 63.1500 -143.8667 138° Southeast 480 552 37,000  Level Anchorage Center
05:55AM 63.0667 -143.6500 130° Southeast 480 552 37,000  Level Anchorage Center
05:56AM 62.9667 -143.4500 138° Southeast 480 552 37,000  Level Anchorage Center
05:57AM 62.8667 -143.2333 135° Southeast 470 541 37,000  Level Anchorage Center
05:58AM 62.7667 -143.0333 137° Southeast 470 541 37,000  Level Anchorage Center
05:59AM 62.6833 -142.8333 132° Southeast 480 552 37,000  Level Anchorage Center
06:00AM 62.5833 -142.6333 137° Southeast 470 541 37,000  Level Anchorage Center
06:01AM 62.4833 -142.4667 142° Southeast 460 529 37,000  Level Anchorage Center
06:02AM 62.4000 -142.3000 137° Southeast 430 495 37,000  Level Anchorage Center
06:03AM 62.3000 -142.1000 137° Southeast 460 529 37,000  Level Anchorage Center
06:04AM 62.2000 -141.9167 139° Southeast 460 529 37,000  Level Anchorage Center
06:05AM 62.1000 -141.7167 137° Southeast 470 541 37,000  Level Anchorage Center
06:06AM 62.0167 -141.5500 137° Southeast 460 529 37,000  Level Anchorage Center
06:07AM 61.9167 -141.3667 139° Southeast 460 529 37,000  Level Anchorage Center
06:08AM 61.8167 -141.1667 137° Southeast 470 541 37,000  Level Anchorage Center
06:09AM 61.7167 -140.9833 139° Southeast 470 541 37,000  Level Anchorage Center
06:10AM 61.6167 -140.8000 139° Southeast 470 541 37,000  Level Anchorage Center
06:11AM 61.5167 -140.6167 139° Southeast 470 541 37,000  Level Anchorage Center
06:14AM 61.2833 -140.1667 137° Southeast 480 552 37,000  Level Anchorage Center
06:15AM 61.1833 -139.9833 138° Southeast 470 541 37,000  Level Anchorage Center
06:16AM 61.0833 -139.8167 141° Southeast 460 529 37,000  Level Anchorage Center
06:17AM 60.9833 -139.6500 141° Southeast 450 518 37,000  Level Anchorage Center
06:18AM 60.8833 -139.4833 141° Southeast 450 518 37,000  Level Anchorage Center
06:19AM 60.7833 -139.3167 141° Southeast 450 518 37,000  Level Anchorage Center
06:20AM 60.6833 -139.1500 141° Southeast 460 529 37,000  Level Anchorage Center
06:21AM 60.6000 -138.9833 135° Southeast 450 518 37,000  Level Anchorage Center
06:22AM 60.5000 -138.8167 141° Southeast 450 518 37,000  Level Anchorage Center
06:23AM 60.4000 -138.6500 141° Southeast 450 518 37,000  Level Anchorage Center
06:24AM 60.3000 -138.5000 143° Southeast 450 518 37,000  Level Anchorage Center
06:25AM 60.2000 -138.3333 140° Southeast 460 529 37,000  Level Anchorage Center
06:26AM 60.1000 -138.1667 140° Southeast 460 529 37,000  Level Anchorage Center
06:27AM 60.0000 -138.0000 140° Southeast 460 529 37,000  Level Anchorage Center
06:28AM 59.9000 -137.8500 143° Southeast 460 529 37,000  Level Anchorage Center
06:29AM 59.8000 -137.6833 140° Southeast 460 529 37,000  Level Anchorage Center
06:30AM 59.7000 -137.5333 143° Southeast 450 518 37,000  Level Anchorage Center
06:31AM 59.6000 -137.3833 143° Southeast 450 518 37,000  Level Anchorage Center
06:32AM 59.5000 -137.2167 140° Southeast 450 518 37,000  Level Anchorage Center
06:33AM 59.4000 -137.0667 143° Southeast 450 518 37,000  Level Anchorage Center
06:34AM 59.3000 -136.9167 143° Southeast 450 518 37,000  Level Anchorage Center
06:35AM 59.2000 -136.7667 142° Southeast 450 518 37,000  Level Anchorage Center
06:36AM 59.1167 -136.6167 137° Southeast 440 506 37,000  Level Anchorage Center
06:37AM 59.0167 -136.4667 142° Southeast 450 518 37,000  Level Anchorage Center
06:38AM 58.9167 -136.3167 142° Southeast 440 506 37,000  Level Anchorage Center
06:39AM 58.8167 -136.1833 145° Southeast 450 518 37,000  Level Anchorage Center
06:40AM 58.7333 -136.0500 140° Southeast 440 506 37,000  Level Anchorage Center
06:41AM 58.6333 -135.9167 145° Southeast 440 506 37,000  Level Anchorage Center
06:42AM 58.5333 -135.7667 142° Southeast 440 506 37,000  Level Anchorage Center
06:43AM 58.4333 -135.6333 145° Southeast 440 506 37,000  Level Anchorage Center
06:45AM 58.2333 -135.3500 143° Southeast 450 518 37,000  Level Anchorage Center
06:46AM 58.1333 -135.2000 142° Southeast 450 518 37,000  Level Anchorage Center
06:47AM 58.0500 -135.0500 136° Southeast 450 518 37,000  Level Anchorage Center
06:48AM 57.9500 -134.8833 138° Southeast 450 518 37,000  Level Anchorage Center
06:49AM 57.8500 -134.7333 141° Southeast 450 518 37,000  Level Anchorage Center
06:50AM 57.7667 -134.5833 136° Southeast 450 518 37,000  Level Anchorage Center
06:51AM 57.6667 -134.4167 138° Southeast 450 518 37,000  Level Anchorage Center
06:52AM 57.5833 -134.2667 136° Southeast 440 506 37,000  Level Anchorage Center
06:53AM 57.4833 -134.1167 141° Southeast 450 518 37,000  Level Anchorage Center
06:54AM 57.3833 -133.9833 144° Southeast 430 495 37,000  Level Anchorage Center
06:55AM 57.3000 -133.8333 136° Southeast 440 506 37,000  Level Anchorage Center
06:56AM 57.2000 -133.6833 141° Southeast 440 506 37,000  Level Anchorage Center
06:57AM 57.1167 -133.5333 136° Southeast 430 495 37,000  Level Anchorage Center
06:58AM 57.0167 -133.4000 144° Southeast 440 506 37,000  Level Anchorage Center
06:59AM 56.9167 -133.2500 141° Southeast 430 495 37,000  Level Anchorage Center
07:00AM 56.8333 -133.1000 135° Southeast 440 506 37,000  Level Anchorage Center
07:01AM 56.7333 -132.9667 144° Southeast 440 506 37,000  Level Anchorage Center
07:02AM 56.6333 -132.8167 140° Southeast 450 518 37,000  Level Anchorage Center
07:03AM 56.5500 -132.6667 135° Southeast 450 518 37,000  Level Anchorage Center
07:04AM 56.4500 -132.5333 144° Southeast 440 506 37,000  Level Anchorage Center
07:05AM 56.3500 -132.3833 140° Southeast 440 506 37,000  Level Anchorage Center
07:06AM 56.2500 -132.2500 143° Southeast 430 495 37,000  Level Anchorage Center
07:07AM 56.1667 -132.1167 138° Southeast 430 495 37,000  Level Anchorage Center
07:08AM 56.0667 -131.9833 143° Southeast 440 506 37,000  Level Anchorage Center
07:09AM 55.9833 -131.8500 138° Southeast 440 506 37,000  Level Anchorage Center
07:10AM 55.8833 -131.7167 143° Southeast 440 506 37,000  Level Anchorage Center
07:11AM 55.7833 -131.5667 140° Southeast 440 506 37,000  Level Anchorage Center
07:12AM 55.7000 -131.4333 138° Southeast 450 518 37,000  Level Anchorage Center
07:13AM 55.6000 -131.3000 143° Southeast 450 518 37,000  Level Anchorage Center
07:14AM 55.4833 -131.1667 147° Southeast 450 518 37,000  Level Anchorage Center
07:15AM 55.3833 -131.0167 140° Southeast 450 518 37,000  Level Anchorage Center
07:16AM 55.2833 -130.8833 143° Southeast 450 518 37,000  Level Anchorage Center
07:17AM 55.1833 -130.7500 143° Southeast 460 529 37,000  Level Anchorage Center
07:18AM 55.0833 -130.6167 143° Southeast 460 529 37,000  Level Anchorage Center
07:19AM 55.0000 -130.4833 137° Southeast 460 529 37,000  Level Anchorage Center
07:20AM 54.8667 -130.3500 150° Southeast 460 529 37,000  Level Vancouver Center
07:21AM 54.7667 -130.2167 142° Southeast 460 529 37,000  Level Vancouver Center
07:22AM 54.6500 -130.0833 147° Southeast 460 529 37,000  Level Vancouver Center
07:23AM 54.5667 -129.9500 137° Southeast 460 529 37,000  Level Vancouver Center
07:24AM 54.4667 -129.8333 146° Southeast 470 541 37,000  Level Vancouver Center
07:25AM 54.3500 -129.7000 146° Southeast 460 529 37,000  Level Vancouver Center
07:26AM 54.2667 -129.5667 137° Southeast 460 529 37,000  Level Vancouver Center
07:27AM 54.1500 -129.4167 143° Southeast 460 529 37,000  Level Vancouver Center
07:28AM 54.0333 -129.2833 146° Southeast 460 529 37,000  Level Vancouver Center
07:29AM 53.9500 -129.1667 140° Southeast 460 529 37,000  Level Vancouver Center
07:30AM 53.8333 -129.0333 146° Southeast 460 529 37,000  Level Vancouver Center
07:31AM 53.7333 -128.9000 142° Southeast 460 529 37,000  Level Vancouver Center
07:32AM 53.6333 -128.7833 145° Southeast 460 529 37,000  Level Vancouver Center
07:33AM 53.5333 -128.6500 142° Southeast 460 529 37,000  Level Vancouver Center
07:34AM 53.4167 -128.5333 149° Southeast 460 529 37,000  Level Vancouver Center
07:35AM 53.3167 -128.4167 145° Southeast 460 529 37,000  Level Vancouver Center
07:36AM 53.2167 -128.2667 138° Southeast 460 529 37,000  Level Vancouver Center
07:37AM 53.1167 -128.1333 141° Southeast 480 552 37,000  Level Vancouver Center
07:38AM 53.0167 -128.0167 145° Southeast 460 529 37,000  Level Vancouver Center
07:39AM 52.9167 -127.9000 145° Southeast 460 529 37,000  Level Vancouver Center
07:40AM 52.8000 -127.7667 145° Southeast 460 529 37,000  Level Vancouver Center
07:41AM 52.7000 -127.6500 145° Southeast 460 529 37,000  Level Vancouver Center
07:42AM 52.5833 -127.5333 149° Southeast 460 529 37,000  Level Vancouver Center
07:43AM 52.4833 -127.4167 145° Southeast 460 529 37,000  Level Vancouver Center
07:44AM 52.3833 -127.3000 145° Southeast 460 529 37,000  Level Vancouver Center
07:45AM 52.2833 -127.1833 144° Southeast 460 529 37,000  Level Vancouver Center
07:46AM 52.1667 -127.0667 148° Southeast 460 529 37,000  Level Vancouver Center
07:47AM 52.0667 -126.9500 144° Southeast 460 529 37,000  Level Vancouver Center
07:48AM 51.9500 -126.8000 142° Southeast 460 529 37,000  Level Vancouver Center
07:49AM 51.8500 -126.7167 153° Southeast 460 529 37,000  Level Vancouver Center
07:50AM 51.7667 -126.6000 139° Southeast 460 529 37,000  Level Vancouver Center
07:51AM 51.6500 -126.4667 145° Southeast 460 529 37,000  Level Vancouver Center
07:52AM 51.5500 -126.3500 144° Southeast 460 529 37,000  Level Vancouver Center
07:53AM 51.4333 -126.2333 148° Southeast 460 529 37,000  Level Vancouver Center
07:54AM 51.3333 -126.1167 144° Southeast 450 518 37,000  Level Vancouver Center
07:55AM 51.2167 -126.0167 152° Southeast 450 518 37,000  Level Vancouver Center
07:56AM 51.1167 -125.9000 144° Southeast 460 529 37,000  Level Vancouver Center
07:57AM 51.0000 -125.7833 148° Southeast 460 529 37,000  Level Vancouver Center
07:58AM 50.9167 -125.6833 143° Southeast 460 529 37,000  Level Vancouver Center
07:59AM 50.8167 -125.5667 144° Southeast 460 529 37,000  Level Vancouver Center
08:00AM 50.7000 -125.4667 151° Southeast 460 529 37,000  Level Vancouver Center
08:01AM 50.6000 -125.3500 143° Southeast 460 529 37,000  Level Vancouver Center
08:02AM 50.4833 -125.2500 151° Southeast 450 518 37,000  Level Vancouver Center
08:03AM 50.3833 -125.1333 143° Southeast 450 518 37,000  Level Vancouver Center
08:04AM 50.2667 -125.0333 151° Southeast 450 518 37,000  Level Vancouver Center
08:05AM 50.1667 -124.9167 143° Southeast 450 518 37,000  Level Vancouver Center
08:06AM 50.0667 -124.8167 147° Southeast 450 518 37,000  Level Vancouver Center
08:07AM 49.9667 -124.7000 143° Southeast 450 518 37,000  Level Vancouver Center
08:08AM 49.8500 -124.6000 151° Southeast 450 518 37,000  Level Vancouver Center
08:09AM 49.7500 -124.5000 147° Southeast 450 518 37,000  Level Vancouver Center
08:10AM 49.6500 -124.4000 147° Southeast 450 518 37,000  Level Vancouver Center
08:11AM 49.5500 -124.2833 143° Southeast 450 518 37,000  Level Vancouver Center
08:12AM 49.4333 -124.1833 151° Southeast 450 518 37,000  Level Vancouver Center
08:13AM 49.3333 -124.0833 147° Southeast 450 518 37,000  Level Vancouver Center
08:14AM 49.2167 -123.9833 151° Southeast 450 518 37,000  Level Vancouver Center
08:15AM 49.1167 -123.8833 147° Southeast 440 506 37,000  Level Vancouver Center
08:16AM 49.0167 -123.7667 143° Southeast 440 506 37,000  Level Vancouver Center
08:17AM 48.9167 -123.6667 147° Southeast 440 506 37,000  Level Vancouver Center
08:18AM 48.8167 -123.5667 147° Southeast 440 506 37,000 -180 Level Vancouver Center
08:19AM 48.7167 -123.5000 156° South 440 506 36,700 -1,800 Descending Vancouver Center
08:20AM 48.6000 -123.4000 150° Southeast 420 483 33,500 -3,120 Descending Vancouver Center
08:21AM 48.5167 -123.3000 142° Southeast 430 495 30,500 -2,820 Descending Vancouver Center
08:22AM 48.4000 -123.2000 150° Southeast 430 495 27,900 -2,220 Descending Vancouver Center
08:23AM 48.3314 -123.1161 141° Southeast 412 474 26,000 -2,040 Descending Seattle Center
08:24AM 48.2697 -123.0633 150° Southeast 390 449 24,600 -2,160 Descending Seattle Center
08:25AM 48.1894 -122.9878 148° Southeast 381 438 22,800 -2,100 Descending Seattle Center
08:25AM 48.1411 -122.9422 148° Southeast 377 434 21,600 -2,100 Descending Seattle Center
08:26AM 48.0567 -122.8644 148° Southeast 365 420 19,600 -1,860 Descending Seattle Center
08:27AM 47.9736 -122.7911 149° Southeast 354 407 17,900 -1,740 Descending Seattle Center
08:28AM 47.8964 -122.7214 149° Southeast 327 376 16,100 -1,800 Descending Seattle Center
08:29AM 47.8211 -122.6533 149° Southeast 320 368 14,400 -1,800 Descending Seattle Center
08:30AM 47.7464 -122.5858 149° Southeast 311 358 12,600 -1,440 Descending Seattle Center
08:31AM 47.6772 -122.5236 149° Southeast 293 337 11,600 -1,260 Descending Seattle Center
08:32AM 47.6058 -122.4628 150° Southeast 296 341 10,100 -1,440 Descending Seattle Center
08:33AM 47.5308 -122.4583 178° South 270 311 8,800 -1,140 Descending Seattle Center
08:34AM 47.4567 -122.4606 181° South 248 285 7,900 -1,260 Descending Seattle Center
08:35AM 47.3956 -122.4617 181° South 223 257 6,300 -1,560 Descending Seattle Center
08:36AM 47.3333 -122.4639 181° South 224 258 4,800 -1,440 Descending Seattle Center
08:37AM 47.2789 -122.4472 168° South 217 250 3,500 -1,020 Descending Seattle Center
08:38AM 47.2894 -122.3756 78° East 189 217 2,800 -600 Descending Seattle Center
08:39AM 47.3233 -122.3236 46° Northeast 177 204 2,400 -720 Descending Seattle Center
08:40AM 47.3644 -122.3094 13° North 153 176 1,400 -780 Descending Seattle Center
08:41AM 47.4019 -122.3083 North 136 157 900 -600 Descending Seattle Center
08:42AM 47.4381 -122.3086 360° North 140 161 300 -600 Descending Seattle Center
08:44AM 47.4333 -122.3000 45° Northeast  Level FlightAware Approximate